createdAt,value
2023-02-04T00:00:41.702Z,0.00
2023-02-04T00:01:48.276Z,0.00
2023-02-04T00:02:40.702Z,0.00
2023-02-04T00:03:40.640Z,0.00
2023-02-04T00:04:40.632Z,0.00
2023-02-04T00:05:41.691Z,0.00
2023-02-04T00:06:40.627Z,0.00
2023-02-04T00:07:41.491Z,0.00
2023-02-04T00:08:40.573Z,0.00
2023-02-04T00:09:40.561Z,0.00
2023-02-04T00:10:40.571Z,0.00
2023-02-04T00:11:41.573Z,0.00
2023-02-04T00:12:41.538Z,0.00
2023-02-04T00:13:40.516Z,0.00
2023-02-04T00:14:40.499Z,0.00
2023-02-04T00:15:41.611Z,0.00
2023-02-04T00:16:40.483Z,0.00
2023-02-04T00:17:40.536Z,0.00
2023-02-04T00:18:40.474Z,0.00
2023-02-04T00:19:40.482Z,0.00
2023-02-04T00:20:40.454Z,0.00
2023-02-04T00:21:40.464Z,0.00
2023-02-04T00:22:40.418Z,0.00
2023-02-04T00:23:40.423Z,0.00
2023-02-04T00:24:41.393Z,0.00
2023-02-04T00:25:40.388Z,0.00
2023-02-04T00:26:40.389Z,0.00
2023-02-04T00:27:40.418Z,0.00
2023-02-04T00:28:40.345Z,0.00
2023-02-04T00:29:40.353Z,0.00
2023-02-04T00:30:40.359Z,0.00
2023-02-04T00:31:40.411Z,0.00
2023-02-04T00:32:40.318Z,0.00
2023-02-04T00:33:40.328Z,0.00
2023-02-04T00:34:41.321Z,0.00
2023-02-04T00:35:40.281Z,0.00
2023-02-04T00:36:40.298Z,0.00
2023-02-04T00:37:40.273Z,0.00
2023-02-04T00:38:40.241Z,0.00
2023-02-04T00:39:41.259Z,0.00
2023-02-04T00:40:40.232Z,0.00
2023-02-04T00:41:40.219Z,0.00
2023-02-04T00:42:40.234Z,0.00
2023-02-04T00:43:41.166Z,0.00
2023-02-04T00:44:40.184Z,0.00
2023-02-04T00:45:41.193Z,0.00
2023-02-04T00:46:40.185Z,0.00
2023-02-04T00:47:40.172Z,0.00
2023-02-04T00:48:40.144Z,0.00
2023-02-04T00:49:40.166Z,0.00
2023-02-04T00:50:40.151Z,0.00
2023-02-04T00:51:40.093Z,0.00
2023-02-04T00:52:41.114Z,0.00
2023-02-04T00:53:40.100Z,0.00
2023-02-04T00:54:40.057Z,0.00
2023-02-04T00:55:40.043Z,0.00
2023-02-04T00:56:40.677Z,0.00
2023-02-04T00:57:41.032Z,0.00
2023-02-04T00:58:40.021Z,0.00
2023-02-04T00:59:40.036Z,0.00
2023-02-04T01:00:40.195Z,0.00
2023-02-04T01:01:40.014Z,0.00
2023-02-04T01:02:40.058Z,0.00
2023-02-04T01:03:40.978Z,0.00
2023-02-04T01:04:39.974Z,0.00
2023-02-04T01:05:39.992Z,0.00
2023-02-04T01:06:40.936Z,0.00
2023-02-04T01:07:40.024Z,0.00
2023-02-04T01:08:39.919Z,0.00
2023-02-04T01:09:39.951Z,0.00
2023-02-04T01:10:39.898Z,0.00
2023-02-04T01:11:39.882Z,0.00
2023-02-04T01:12:39.923Z,0.00
2023-02-04T01:13:39.853Z,0.00
2023-02-04T01:14:39.860Z,0.00
2023-02-04T01:15:39.870Z,0.00
2023-02-04T01:16:39.903Z,0.00
2023-02-04T01:17:40.812Z,0.00
2023-02-04T01:18:39.851Z,0.00
2023-02-04T01:19:39.805Z,0.00
2023-02-04T01:20:39.791Z,0.00
2023-02-04T01:21:41.028Z,0.00
2023-02-04T01:22:39.787Z,0.00
2023-02-04T01:23:39.763Z,0.00
2023-02-04T01:24:39.830Z,0.00
2023-02-04T01:25:39.754Z,0.00
2023-02-04T01:26:39.779Z,0.00
2023-02-04T01:27:40.775Z,0.00
2023-02-04T01:28:39.724Z,0.00
2023-02-04T01:29:39.690Z,0.00
2023-02-04T01:30:39.743Z,0.00
2023-02-04T01:31:40.818Z,0.00
2023-02-04T01:32:39.652Z,0.00
2023-02-04T01:33:39.660Z,0.00
2023-02-04T01:34:39.659Z,0.00
2023-02-04T01:35:39.662Z,0.00
2023-02-04T01:36:39.626Z,0.00
2023-02-04T01:37:40.653Z,0.00
2023-02-04T01:38:39.601Z,0.00
2023-02-04T01:39:39.598Z,0.00
2023-02-04T01:40:39.599Z,0.00
2023-02-04T01:41:40.566Z,0.00
2023-02-04T01:42:40.614Z,0.00
2023-02-04T01:43:40.562Z,0.00
2023-02-04T01:44:39.546Z,0.00
2023-02-04T01:45:39.656Z,0.00
2023-02-04T01:46:39.539Z,0.00
2023-02-04T01:47:39.506Z,0.00
2023-02-04T01:48:39.542Z,0.00
2023-02-04T01:49:39.517Z,0.00
2023-02-04T01:50:40.498Z,0.00
2023-02-04T01:51:39.482Z,0.00
2023-02-04T01:52:39.476Z,0.00
2023-02-04T01:53:39.441Z,0.00
2023-02-04T01:54:39.415Z,0.00
2023-02-04T01:55:39.449Z,0.00
2023-02-04T01:56:40.149Z,0.00
2023-02-04T01:57:39.410Z,0.00
2023-02-04T01:58:39.406Z,0.00
2023-02-04T01:59:40.133Z,0.00
2023-02-04T02:00:40.344Z,0.00
2023-02-04T02:01:40.368Z,0.00
2023-02-04T02:02:39.360Z,0.00
2023-02-04T02:03:39.354Z,0.00
2023-02-04T02:04:40.303Z,0.00
2023-02-04T02:05:39.292Z,0.00
2023-02-04T02:06:39.301Z,0.00
2023-02-04T02:07:40.311Z,0.00
2023-02-04T02:08:40.302Z,0.00
2023-02-04T02:09:40.279Z,0.00
2023-02-04T02:10:39.257Z,0.00
2023-02-04T02:11:39.250Z,0.00
2023-02-04T02:12:39.222Z,0.00
2023-02-04T02:13:40.259Z,0.00
2023-02-04T02:14:39.215Z,0.00
2023-02-04T02:15:39.223Z,0.00
2023-02-04T02:16:39.225Z,0.00
2023-02-04T02:17:40.213Z,0.00
2023-02-04T02:18:39.177Z,0.00
2023-02-04T02:19:39.181Z,0.00
2023-02-04T02:20:39.165Z,0.00
2023-02-04T02:21:40.117Z,0.00
2023-02-04T02:22:39.109Z,0.00
2023-02-04T02:23:39.129Z,0.00
2023-02-04T02:24:39.101Z,0.00
2023-02-04T02:25:40.102Z,0.00
2023-02-04T02:26:39.110Z,0.00
2023-02-04T02:27:40.065Z,0.00
2023-02-04T02:28:39.060Z,0.00
2023-02-04T02:29:40.046Z,0.00
2023-02-04T02:30:40.083Z,0.00
2023-02-04T02:31:39.107Z,0.00
2023-02-04T02:32:39.086Z,0.00
2023-02-04T02:33:38.996Z,0.00
2023-02-04T02:34:38.978Z,0.00
2023-02-04T02:35:40.009Z,0.00
2023-02-04T02:36:39.002Z,0.00
2023-02-04T02:37:38.953Z,0.00
2023-02-04T02:38:38.988Z,0.00
2023-02-04T02:39:38.937Z,0.00
2023-02-04T02:40:39.945Z,0.00
2023-02-04T02:41:38.928Z,0.00
2023-02-04T02:42:38.943Z,0.00
2023-02-04T02:43:38.906Z,0.00
2023-02-04T02:44:38.900Z,0.00
2023-02-04T02:45:38.856Z,0.00
2023-02-04T02:46:39.854Z,0.00
2023-02-04T02:47:38.867Z,0.00
2023-02-04T02:48:38.844Z,0.00
2023-02-04T02:49:38.842Z,0.00
2023-02-04T02:50:39.861Z,0.00
2023-02-04T02:51:39.830Z,0.00
2023-02-04T02:52:38.841Z,0.00
2023-02-04T02:53:39.778Z,0.00
2023-02-04T02:54:38.769Z,0.00
2023-02-04T02:55:38.776Z,0.00
2023-02-04T02:56:38.734Z,0.00
2023-02-04T02:57:39.821Z,0.00
2023-02-04T02:58:38.728Z,0.00
2023-02-04T02:59:38.728Z,0.00
2023-02-04T03:00:38.710Z,0.00
2023-02-04T03:01:38.755Z,0.00
2023-02-04T03:02:38.814Z,0.00
2023-02-04T03:03:39.720Z,0.00
2023-02-04T03:04:39.657Z,0.00
2023-02-04T03:05:39.655Z,0.00
2023-02-04T03:06:38.654Z,0.00
2023-02-04T03:07:38.626Z,0.00
2023-02-04T03:08:39.617Z,0.00
2023-02-04T03:09:38.683Z,0.00
2023-02-04T03:10:38.597Z,0.00
2023-02-04T03:11:38.568Z,0.00
2023-02-04T03:12:38.594Z,0.00
2023-02-04T03:13:39.570Z,0.00
2023-02-04T03:14:38.551Z,0.00
2023-02-04T03:15:38.688Z,0.00
2023-02-04T03:16:39.516Z,0.00
2023-02-04T03:17:39.527Z,0.00
2023-02-04T03:18:39.491Z,0.00
2023-02-04T03:19:38.512Z,0.00
2023-02-04T03:20:38.483Z,0.00
2023-02-04T03:21:38.477Z,0.00
2023-02-04T03:22:38.537Z,0.00
2023-02-04T03:23:38.474Z,0.00
2023-02-04T03:24:38.447Z,0.00
2023-02-04T03:25:38.418Z,0.00
2023-02-04T03:26:38.426Z,0.00
2023-02-04T03:27:38.474Z,0.00
2023-02-04T03:28:39.401Z,0.00
2023-02-04T03:29:38.444Z,0.00
2023-02-04T03:30:38.442Z,0.00
2023-02-04T03:31:39.490Z,0.00
2023-02-04T03:32:38.345Z,0.00
2023-02-04T03:33:38.354Z,0.00
2023-02-04T03:34:38.367Z,0.00
2023-02-04T03:35:39.356Z,0.00
2023-02-04T03:36:38.357Z,0.00
2023-02-04T03:37:38.342Z,0.00
2023-02-04T03:38:39.283Z,0.00
2023-02-04T03:39:39.297Z,0.00
2023-02-04T03:40:38.288Z,0.00
2023-02-04T03:41:38.263Z,0.00
2023-02-04T03:42:38.304Z,0.00
2023-02-04T03:43:38.244Z,0.00
2023-02-04T03:44:38.223Z,0.00
2023-02-04T03:45:45.329Z,0.00
2023-02-04T03:46:39.201Z,0.00
2023-02-04T03:47:38.241Z,0.00
2023-02-04T03:48:38.212Z,0.00
2023-02-04T03:49:38.193Z,0.00
2023-02-04T03:50:38.158Z,0.00
2023-02-04T03:51:38.159Z,0.00
2023-02-04T03:52:39.139Z,0.00
2023-02-04T03:53:38.136Z,0.00
2023-02-04T03:54:38.155Z,0.00
2023-02-04T03:55:38.151Z,0.00
2023-02-04T03:56:39.082Z,0.00
2023-02-04T03:57:38.099Z,0.00
2023-02-04T03:58:38.082Z,0.00
2023-02-04T03:59:38.068Z,0.00
2023-02-04T04:00:38.077Z,0.00
2023-02-04T04:01:38.150Z,0.00
2023-02-04T04:02:38.049Z,0.00
2023-02-04T04:03:39.024Z,0.00
2023-02-04T04:04:38.011Z,0.00
2023-02-04T04:05:38.007Z,0.00
2023-02-04T04:06:38.019Z,0.00
2023-02-04T04:07:38.028Z,0.00
2023-02-04T04:08:37.972Z,0.00
2023-02-04T04:09:38.999Z,0.00
2023-02-04T04:10:39.765Z,0.00
2023-02-04T04:11:37.932Z,0.00
2023-02-04T04:12:37.928Z,0.00
2023-02-04T04:13:39.001Z,0.00
2023-02-04T04:14:37.948Z,0.00
2023-02-04T04:15:37.919Z,0.00
2023-02-04T04:16:37.880Z,0.00
2023-02-04T04:17:37.892Z,0.00
2023-02-04T04:18:37.862Z,0.00
2023-02-04T04:19:37.890Z,0.00
2023-02-04T04:20:38.873Z,0.00
2023-02-04T04:21:37.832Z,0.00
2023-02-04T04:22:38.804Z,0.00
2023-02-04T04:23:37.821Z,0.00
2023-02-04T04:24:38.795Z,0.00
2023-02-04T04:25:37.805Z,0.00
2023-02-04T04:26:37.767Z,0.00
2023-02-04T04:27:37.757Z,0.00
2023-02-04T04:28:38.841Z,0.00
2023-02-04T04:29:37.756Z,0.00
2023-02-04T04:30:37.810Z,0.00
2023-02-04T04:31:37.934Z,0.00
2023-02-04T04:32:37.717Z,0.00
2023-02-04T04:33:37.698Z,0.00
2023-02-04T04:34:37.736Z,0.00
2023-02-04T04:35:38.678Z,0.00
2023-02-04T04:36:37.700Z,0.00
2023-02-04T04:37:37.632Z,0.00
2023-02-04T04:38:37.648Z,0.00
2023-02-04T04:39:38.540Z,0.00
2023-02-04T04:40:38.660Z,0.00
2023-02-04T04:41:38.600Z,0.00
2023-02-04T04:42:38.601Z,0.00
2023-02-04T04:43:37.588Z,0.00
2023-02-04T04:44:38.564Z,0.00
2023-02-04T04:45:37.589Z,0.00
2023-02-04T04:46:37.616Z,0.00
2023-02-04T04:47:37.569Z,0.00
2023-02-04T04:48:37.539Z,0.00
2023-02-04T04:49:38.532Z,0.00
2023-02-04T04:50:37.492Z,0.00
2023-02-04T04:51:37.484Z,0.00
2023-02-04T04:52:37.539Z,0.00
2023-02-04T04:53:38.474Z,0.00
2023-02-04T04:54:38.044Z,0.00
2023-02-04T04:55:38.444Z,0.00
2023-02-04T04:56:38.447Z,0.00
2023-02-04T04:57:37.425Z,0.00
2023-02-04T04:58:37.432Z,0.00
2023-02-04T04:59:38.414Z,0.00
2023-02-04T05:00:38.433Z,0.00
2023-02-04T05:01:37.406Z,0.00
2023-02-04T05:02:37.361Z,0.00
2023-02-04T05:03:37.387Z,0.00
2023-02-04T05:04:37.375Z,0.00
2023-02-04T05:05:37.397Z,0.00
2023-02-04T05:06:37.378Z,0.00
2023-02-04T05:07:37.332Z,0.00
2023-02-04T05:08:37.298Z,0.00
2023-02-04T05:09:37.309Z,0.00
2023-02-04T05:10:37.281Z,0.00
2023-02-04T05:11:37.324Z,0.00
2023-02-04T05:12:37.301Z,0.00
2023-02-04T05:13:37.274Z,0.00
2023-02-04T05:14:38.255Z,0.00
2023-02-04T05:15:37.237Z,0.00
2023-02-04T05:16:38.326Z,0.00
2023-02-04T05:17:37.260Z,0.00
2023-02-04T05:18:37.190Z,0.00
2023-02-04T05:19:38.246Z,0.00
2023-02-04T05:20:37.172Z,0.00
2023-02-04T05:21:37.217Z,0.00
2023-02-04T05:22:37.180Z,0.00
2023-02-04T05:23:37.187Z,0.00
2023-02-04T05:24:37.146Z,0.00
2023-02-04T05:25:37.175Z,0.00
2023-02-04T05:26:37.121Z,0.00
2023-02-04T05:27:37.131Z,0.00
2023-02-04T05:28:38.114Z,0.00
2023-02-04T05:29:38.103Z,0.00
2023-02-04T05:30:37.097Z,0.00
2023-02-04T05:31:38.128Z,0.00
2023-02-04T05:32:38.036Z,0.00
2023-02-04T05:33:37.060Z,0.00
2023-02-04T05:34:38.255Z,0.00
2023-02-04T05:35:38.051Z,0.00
2023-02-04T05:36:37.010Z,0.00
2023-02-04T05:37:38.032Z,0.00
2023-02-04T05:38:37.976Z,0.00
2023-02-04T05:39:36.962Z,0.00
2023-02-04T05:40:37.007Z,0.00
2023-02-04T05:41:36.995Z,0.00
2023-02-04T05:42:37.941Z,0.00
2023-02-04T05:43:36.953Z,0.00
2023-02-04T05:44:36.920Z,0.00
2023-02-04T05:45:36.958Z,0.00
2023-02-04T05:46:36.887Z,0.00
2023-02-04T05:47:36.963Z,0.00
2023-02-04T05:48:36.909Z,0.00
2023-02-04T05:49:36.884Z,0.00
2023-02-04T05:50:36.868Z,0.00
2023-02-04T05:51:36.877Z,0.00
2023-02-04T05:52:36.839Z,0.00
2023-02-04T05:53:37.820Z,0.00
2023-02-04T05:54:36.808Z,0.00
2023-02-04T05:55:36.870Z,0.00
2023-02-04T05:56:37.778Z,0.00
2023-02-04T05:57:36.766Z,0.00
2023-02-04T05:58:37.882Z,0.00
2023-02-04T05:59:36.756Z,0.00
2023-02-04T06:00:36.727Z,0.00
2023-02-04T06:01:36.799Z,0.00
2023-02-04T06:02:36.741Z,0.00
2023-02-04T06:03:36.740Z,0.00
2023-02-04T06:04:36.775Z,0.00
2023-02-04T06:05:37.677Z,0.00
2023-02-04T06:06:36.674Z,0.00
2023-02-04T06:07:36.745Z,0.00
2023-02-04T06:08:36.668Z,0.00
2023-02-04T06:09:37.687Z,0.00
2023-02-04T06:10:36.634Z,0.00
2023-02-04T06:11:36.620Z,0.00
2023-02-04T06:12:36.646Z,0.00
2023-02-04T06:13:36.646Z,0.00
2023-02-04T06:14:37.582Z,0.00
2023-02-04T06:15:37.567Z,0.00
2023-02-04T06:16:37.596Z,0.00
2023-02-04T06:17:36.566Z,0.00
2023-02-04T06:18:36.569Z,0.00
2023-02-04T06:19:36.606Z,0.00
2023-02-04T06:20:36.551Z,0.00
2023-02-04T06:21:36.517Z,0.00
2023-02-04T06:22:36.505Z,4.00
2023-02-04T06:23:36.495Z,0.00
2023-02-04T06:24:36.510Z,0.00
2023-02-04T06:25:36.526Z,4.00
2023-02-04T06:26:36.480Z,4.00
2023-02-04T06:27:36.443Z,0.00
2023-02-04T06:28:36.450Z,4.00
2023-02-04T06:29:36.467Z,4.00
2023-02-04T06:30:36.873Z,4.00
2023-02-04T06:31:36.480Z,4.00
2023-02-04T06:32:36.464Z,4.00
2023-02-04T06:33:36.398Z,8.00
2023-02-04T06:34:37.357Z,8.00
2023-02-04T06:35:37.389Z,4.00
2023-02-04T06:36:36.402Z,8.00
2023-02-04T06:37:36.367Z,8.00
2023-02-04T06:38:36.355Z,12.00
2023-02-04T06:39:36.324Z,12.00
2023-02-04T06:40:36.300Z,12.00
2023-02-04T06:41:36.315Z,16.00
2023-02-04T06:42:36.328Z,16.00
2023-02-04T06:43:37.345Z,16.00
2023-02-04T06:44:36.252Z,16.00
2023-02-04T06:45:37.255Z,20.00
2023-02-04T06:46:36.266Z,20.00
2023-02-04T06:47:36.232Z,24.00
2023-02-04T06:48:36.323Z,28.00
2023-02-04T06:49:36.245Z,28.00
2023-02-04T06:50:36.184Z,32.00
2023-02-04T06:51:37.172Z,32.00
2023-02-04T06:52:37.181Z,32.00
2023-02-04T06:53:37.180Z,36.00
2023-02-04T06:54:36.164Z,40.00
2023-02-04T06:55:36.166Z,40.00
2023-02-04T06:56:37.161Z,40.00
2023-02-04T06:57:37.172Z,44.00
2023-02-04T06:58:36.110Z,48.00
2023-02-04T06:59:36.112Z,48.00
2023-02-04T07:00:36.090Z,52.00
2023-02-04T07:01:36.155Z,52.00
2023-02-04T07:02:36.178Z,60.00
2023-02-04T07:03:36.067Z,64.00
2023-02-04T07:04:36.049Z,64.00
2023-02-04T07:05:37.054Z,64.00
2023-02-04T07:06:36.051Z,68.00
2023-02-04T07:07:36.049Z,68.00
2023-02-04T07:08:36.027Z,72.00
2023-02-04T07:09:36.002Z,76.00
2023-02-04T07:10:36.984Z,80.00
2023-02-04T07:11:36.015Z,80.00
2023-02-04T07:12:35.988Z,84.00
2023-02-04T07:13:35.980Z,88.00
2023-02-04T07:14:35.991Z,88.00
2023-02-04T07:15:36.063Z,92.00
2023-02-04T07:16:35.952Z,96.00
2023-02-04T07:17:35.919Z,96.00
2023-02-04T07:18:35.911Z,100.00
2023-02-04T07:19:35.885Z,100.00
2023-02-04T07:20:36.080Z,104.00
2023-02-04T07:21:35.885Z,104.00
2023-02-04T07:22:35.900Z,112.00
2023-02-04T07:23:35.857Z,112.00
2023-02-04T07:24:36.840Z,116.00
2023-02-04T07:25:35.815Z,120.00
2023-02-04T07:26:35.806Z,120.00
2023-02-04T07:27:36.869Z,124.00
2023-02-04T07:28:36.922Z,124.00
2023-02-04T07:29:35.811Z,120.00
2023-02-04T07:30:36.162Z,124.00
2023-02-04T07:31:36.913Z,128.00
2023-02-04T07:32:35.972Z,128.00
2023-02-04T07:33:35.766Z,128.00
2023-02-04T07:34:35.776Z,132.00
2023-02-04T07:35:35.712Z,136.00
2023-02-04T07:36:36.696Z,132.00
2023-02-04T07:37:35.729Z,140.00
2023-02-04T07:38:35.684Z,148.00
2023-02-04T07:39:35.662Z,144.00
2023-02-04T07:40:35.652Z,160.00
2023-02-04T07:41:35.679Z,164.00
2023-02-04T07:42:35.644Z,168.00
2023-02-04T07:43:35.602Z,172.00
2023-02-04T07:44:35.594Z,172.00
2023-02-04T07:45:35.732Z,176.00
2023-02-04T07:46:35.673Z,176.00
2023-02-04T07:47:36.610Z,184.00
2023-02-04T07:48:35.587Z,184.00
2023-02-04T07:49:36.543Z,192.00
2023-02-04T07:50:36.556Z,184.00
2023-02-04T07:51:36.658Z,200.00
2023-02-04T07:52:36.492Z,204.00
2023-02-04T07:53:35.487Z,212.00
2023-02-04T07:54:35.484Z,216.00
2023-02-04T07:55:36.467Z,220.00
2023-02-04T07:56:35.478Z,228.00
2023-02-04T07:57:35.488Z,232.00
2023-02-04T07:58:35.459Z,236.00
2023-02-04T07:59:35.425Z,244.00
2023-02-04T08:00:35.431Z,252.00
2023-02-04T08:01:35.494Z,260.00
2023-02-04T08:02:35.470Z,264.00
2023-02-04T08:03:37.183Z,268.00
2023-02-04T08:04:35.377Z,272.00
2023-02-04T08:05:35.394Z,280.00
2023-02-04T08:06:35.414Z,288.00
2023-02-04T08:07:36.350Z,292.00
2023-02-04T08:08:35.319Z,300.00
2023-02-04T08:09:36.316Z,308.00
2023-02-04T08:10:35.323Z,320.00
2023-02-04T08:11:36.313Z,332.00
2023-02-04T08:12:35.281Z,336.00
2023-02-04T08:13:35.281Z,344.00
2023-02-04T08:14:35.259Z,340.00
2023-02-04T08:15:35.316Z,336.00
2023-02-04T08:16:35.261Z,316.00
2023-02-04T08:17:36.251Z,344.00
2023-02-04T08:18:35.266Z,336.00
2023-02-04T08:19:35.221Z,344.00
2023-02-04T08:20:35.198Z,344.00
2023-02-04T08:21:35.196Z,348.00
2023-02-04T08:22:35.185Z,360.00
2023-02-04T08:23:35.157Z,372.00
2023-02-04T08:24:35.188Z,384.00
2023-02-04T08:25:35.157Z,400.00
2023-02-04T08:26:36.135Z,412.00
2023-02-04T08:27:35.143Z,420.00
2023-02-04T08:28:35.132Z,424.00
2023-02-04T08:29:35.128Z,436.00
2023-02-04T08:30:35.345Z,444.00
2023-02-04T08:31:35.235Z,448.00
2023-02-04T08:32:35.112Z,448.00
2023-02-04T08:33:35.073Z,456.00
2023-02-04T08:34:35.083Z,452.00
2023-02-04T08:35:35.043Z,452.00
2023-02-04T08:36:35.026Z,456.00
2023-02-04T08:37:35.039Z,448.00
2023-02-04T08:38:35.005Z,452.00
2023-02-04T08:39:36.013Z,448.00
2023-02-04T08:40:35.976Z,448.00
2023-02-04T08:41:34.968Z,460.00
2023-02-04T08:42:34.962Z,464.00
2023-02-04T08:43:34.960Z,468.00
2023-02-04T08:44:34.982Z,476.00
2023-02-04T08:45:34.944Z,436.00
2023-02-04T08:46:34.980Z,480.00
2023-02-04T08:47:34.923Z,480.00
2023-02-04T08:48:35.891Z,496.00
2023-02-04T08:49:34.937Z,496.00
2023-02-04T08:50:34.950Z,492.00
2023-02-04T08:51:34.889Z,488.00
2023-02-04T08:52:34.858Z,488.00
2023-02-04T08:53:34.856Z,488.00
2023-02-04T08:54:34.851Z,496.00
2023-02-04T08:55:34.899Z,484.00
2023-02-04T08:56:36.195Z,496.00
2023-02-04T08:57:34.827Z,508.00
2023-02-04T08:58:34.836Z,500.00
2023-02-04T08:59:34.798Z,508.00
2023-02-04T09:00:35.265Z,472.00
2023-02-04T09:01:34.783Z,536.00
2023-02-04T09:02:34.795Z,528.00
2023-02-04T09:03:34.774Z,488.00
2023-02-04T09:04:34.736Z,540.00
2023-02-04T09:05:35.779Z,540.00
2023-02-04T09:06:34.739Z,540.00
2023-02-04T09:07:34.745Z,512.00
2023-02-04T09:08:35.739Z,552.00
2023-02-04T09:09:35.691Z,564.00
2023-02-04T09:10:34.996Z,548.00
2023-02-04T09:11:34.677Z,572.00
2023-02-04T09:12:34.678Z,576.00
2023-02-04T09:13:34.656Z,584.00
2023-02-04T09:14:34.700Z,576.00
2023-02-04T09:15:34.630Z,528.00
2023-02-04T09:16:34.683Z,516.00
2023-02-04T09:17:34.614Z,556.00
2023-02-04T09:18:34.631Z,548.00
2023-02-04T09:19:34.622Z,524.00
2023-02-04T09:20:34.741Z,516.00
2023-02-04T09:21:34.591Z,516.00
2023-02-04T09:22:34.539Z,536.00
2023-02-04T09:23:34.540Z,544.00
2023-02-04T09:24:34.565Z,536.00
2023-02-04T09:25:34.529Z,536.00
2023-02-04T09:26:34.537Z,516.00
2023-02-04T09:27:34.498Z,520.00
2023-02-04T09:28:34.498Z,536.00
2023-02-04T09:29:34.511Z,524.00
2023-02-04T09:30:35.726Z,496.00
2023-02-04T09:31:34.550Z,484.00
2023-02-04T09:32:34.483Z,500.00
2023-02-04T09:33:34.425Z,432.00
2023-02-04T09:34:35.428Z,424.00
2023-02-04T09:35:34.432Z,448.00
2023-02-04T09:36:34.410Z,440.00
2023-02-04T09:37:34.414Z,408.00
2023-02-04T09:38:34.413Z,404.00
2023-02-04T09:39:34.380Z,404.00
2023-02-04T09:40:34.482Z,408.00
2023-02-04T09:41:34.378Z,384.00
2023-02-04T09:42:35.364Z,428.00
2023-02-04T09:43:35.334Z,396.00
2023-02-04T09:44:35.370Z,464.00
2023-02-04T09:45:34.335Z,472.00
2023-02-04T09:46:34.320Z,500.00
2023-02-04T09:47:34.339Z,516.00
2023-02-04T09:48:34.279Z,504.00
2023-02-04T09:49:34.291Z,544.00
2023-02-04T09:50:34.912Z,564.00
2023-02-04T09:51:34.252Z,592.00
2023-02-04T09:52:34.287Z,572.00
2023-02-04T09:53:34.270Z,592.00
2023-02-04T09:54:34.210Z,604.00
2023-02-04T09:55:34.247Z,600.00
2023-02-04T09:56:34.202Z,572.00
2023-02-04T09:57:34.168Z,588.00
2023-02-04T09:58:34.185Z,560.00
2023-02-04T09:59:35.156Z,572.00
2023-02-04T10:00:34.384Z,572.00
2023-02-04T10:01:34.145Z,588.00
2023-02-04T10:02:41.930Z,596.00
2023-02-04T10:03:35.164Z,600.00
2023-02-04T10:04:35.085Z,600.00
2023-02-04T10:05:34.140Z,604.00
2023-02-04T10:06:34.098Z,596.00
2023-02-04T10:07:34.065Z,592.00
2023-02-04T10:08:34.027Z,596.00
2023-02-04T10:09:34.043Z,432.00
2023-02-04T10:10:34.335Z,620.00
2023-02-04T10:11:35.023Z,568.00
2023-02-04T10:12:34.011Z,532.00
2023-02-04T10:13:33.967Z,612.00
2023-02-04T10:14:34.002Z,448.00
2023-02-04T10:15:33.965Z,468.00
2023-02-04T10:16:34.944Z,504.00
2023-02-04T10:17:34.969Z,608.00
2023-02-04T10:18:34.938Z,620.00
2023-02-04T10:19:33.940Z,632.00
2023-02-04T10:20:34.957Z,632.00
2023-02-04T10:21:33.921Z,636.00
2023-02-04T10:22:34.890Z,640.00
2023-02-04T10:23:33.862Z,648.00
2023-02-04T10:24:33.946Z,648.00
2023-02-04T10:25:33.859Z,652.00
2023-02-04T10:26:33.869Z,648.00
2023-02-04T10:27:33.836Z,660.00
2023-02-04T10:28:34.824Z,664.00
2023-02-04T10:29:33.847Z,672.00
2023-02-04T10:30:34.360Z,676.00
2023-02-04T10:31:33.874Z,680.00
2023-02-04T10:32:33.854Z,688.00
2023-02-04T10:33:33.760Z,552.00
2023-02-04T10:34:34.756Z,320.00
2023-02-04T10:35:34.782Z,672.00
2023-02-04T10:36:33.776Z,648.00
2023-02-04T10:37:33.737Z,508.00
2023-02-04T10:38:33.723Z,496.00
2023-02-04T10:39:33.735Z,452.00
2023-02-04T10:40:35.094Z,516.00
2023-02-04T10:41:33.709Z,496.00
2023-02-04T10:42:33.689Z,512.00
2023-02-04T10:43:34.680Z,540.00
2023-02-04T10:44:33.669Z,528.00
2023-02-04T10:45:33.645Z,352.00
2023-02-04T10:46:33.632Z,336.00
2023-02-04T10:47:33.627Z,380.00
2023-02-04T10:48:33.617Z,388.00
2023-02-04T10:49:34.624Z,400.00
2023-02-04T10:50:34.032Z,364.00
2023-02-04T10:51:33.599Z,376.00
2023-02-04T10:52:33.591Z,384.00
2023-02-04T10:53:33.569Z,420.00
2023-02-04T10:54:33.566Z,420.00
2023-02-04T10:55:33.563Z,436.00
2023-02-04T10:56:34.524Z,464.00
2023-02-04T10:57:33.547Z,460.00
2023-02-04T10:58:33.518Z,444.00
2023-02-04T10:59:33.529Z,440.00
2023-02-04T11:00:33.811Z,404.00
2023-02-04T11:01:33.492Z,388.00
2023-02-04T11:02:33.469Z,412.00
2023-02-04T11:03:33.518Z,468.00
2023-02-04T11:04:33.431Z,412.00
2023-02-04T11:05:33.478Z,388.00
2023-02-04T11:06:33.420Z,392.00
2023-02-04T11:07:33.394Z,396.00
2023-02-04T11:08:33.397Z,428.00
2023-02-04T11:09:34.414Z,416.00
2023-02-04T11:10:34.973Z,444.00
2023-02-04T11:11:33.370Z,500.00
2023-02-04T11:12:33.435Z,540.00
2023-02-04T11:13:33.362Z,520.00
2023-02-04T11:14:33.337Z,500.00
2023-02-04T11:15:33.363Z,632.00
2023-02-04T11:16:33.309Z,364.00
2023-02-04T11:17:33.324Z,344.00
2023-02-04T11:18:33.313Z,344.00
2023-02-04T11:19:33.280Z,348.00
2023-02-04T11:20:34.418Z,348.00
2023-02-04T11:21:33.285Z,352.00
2023-02-04T11:22:34.282Z,360.00
2023-02-04T11:23:33.254Z,380.00
2023-02-04T11:24:33.270Z,404.00
2023-02-04T11:25:33.481Z,452.00
2023-02-04T11:26:34.211Z,508.00
2023-02-04T11:27:34.200Z,680.00
2023-02-04T11:28:34.174Z,704.00
2023-02-04T11:29:33.207Z,704.00
2023-02-04T11:30:33.223Z,716.00
2023-02-04T11:31:33.291Z,744.00
2023-02-04T11:32:33.180Z,752.00
2023-02-04T11:33:34.131Z,780.00
2023-02-04T11:34:33.117Z,800.00
2023-02-04T11:35:33.369Z,804.00
2023-02-04T11:36:33.139Z,776.00
2023-02-04T11:37:33.872Z,752.00
2023-02-04T11:38:34.101Z,768.00
2023-02-04T11:39:33.082Z,784.00
2023-02-04T11:40:34.035Z,788.00
2023-02-04T11:41:34.017Z,804.00
2023-02-04T11:42:34.038Z,788.00
2023-02-04T11:43:34.007Z,544.00
2023-02-04T11:44:33.033Z,508.00
2023-02-04T11:45:33.465Z,516.00
2023-02-04T11:46:33.033Z,560.00
2023-02-04T11:47:32.998Z,580.00
2023-02-04T11:48:33.935Z,588.00
2023-02-04T11:49:32.959Z,608.00
2023-02-04T11:50:32.958Z,824.00
2023-02-04T11:51:32.976Z,552.00
2023-02-04T11:52:33.903Z,580.00
2023-02-04T11:53:33.896Z,596.00
2023-02-04T11:54:32.893Z,628.00
2023-02-04T11:55:33.249Z,816.00
2023-02-04T11:56:32.868Z,808.00
2023-02-04T11:57:32.852Z,804.00
2023-02-04T11:58:33.857Z,812.00
2023-02-04T11:59:32.829Z,520.00
2023-02-04T12:00:33.865Z,520.00
2023-02-04T12:01:32.831Z,600.00
2023-02-04T12:02:32.814Z,808.00
2023-02-04T12:03:33.827Z,808.00
2023-02-04T12:04:32.779Z,524.00
2023-02-04T12:05:33.146Z,508.00
2023-02-04T12:06:32.769Z,476.00
2023-02-04T12:07:32.745Z,452.00
2023-02-04T12:08:32.770Z,444.00
2023-02-04T12:09:33.710Z,440.00
2023-02-04T12:10:32.757Z,720.00
2023-02-04T12:11:33.697Z,480.00
2023-02-04T12:12:33.697Z,404.00
2023-02-04T12:13:32.671Z,408.00
2023-02-04T12:14:32.680Z,700.00
2023-02-04T12:15:33.118Z,724.00
2023-02-04T12:16:32.700Z,712.00
2023-02-04T12:17:32.650Z,716.00
2023-02-04T12:18:32.648Z,696.00
2023-02-04T12:19:32.599Z,668.00
2023-02-04T12:20:32.608Z,664.00
2023-02-04T12:21:32.624Z,668.00
2023-02-04T12:22:32.623Z,680.00
2023-02-04T12:23:32.586Z,408.00
2023-02-04T12:24:33.574Z,416.00
2023-02-04T12:25:32.867Z,420.00
2023-02-04T12:26:33.531Z,428.00
2023-02-04T12:27:32.581Z,420.00
2023-02-04T12:28:32.517Z,424.00
2023-02-04T12:29:32.519Z,476.00
2023-02-04T12:30:32.469Z,476.00
2023-02-04T12:31:32.625Z,392.00
2023-02-04T12:32:32.480Z,396.00
2023-02-04T12:33:32.516Z,412.00
2023-02-04T12:34:32.438Z,648.00
2023-02-04T12:35:32.837Z,708.00
2023-02-04T12:36:32.459Z,688.00
2023-02-04T12:37:33.390Z,684.00
2023-02-04T12:38:33.573Z,548.00
2023-02-04T12:39:32.377Z,544.00
2023-02-04T12:40:32.357Z,628.00
2023-02-04T12:41:32.360Z,668.00
2023-02-04T12:42:33.404Z,408.00
2023-02-04T12:43:32.369Z,576.00
2023-02-04T12:44:32.366Z,476.00
2023-02-04T12:45:32.560Z,468.00
2023-02-04T12:46:33.411Z,660.00
2023-02-04T12:47:32.305Z,416.00
2023-02-04T12:48:32.364Z,640.00
2023-02-04T12:49:32.313Z,656.00
2023-02-04T12:50:32.302Z,660.00
2023-02-04T12:51:32.261Z,656.00
2023-02-04T12:52:32.227Z,652.00
2023-02-04T12:53:33.244Z,644.00
2023-02-04T12:54:32.258Z,640.00